Sitc Xiamen — 3ELU — position and weather

sailwx.info

Track history (hours):
 
Tides and Currents Weather Stations Pressure Air Temp Water Temp Dewpoint Dewpoint Depression Visibility Wind Speed Wind Dir Waves Ship Positions

Sitc Xiamen

Last reported at 2016-Dec-08 01:32 UTC. Time now 2016-Dec-08 02:12 UTC.
Position N 35°37' E 139°46'.

Length 145 m; draft 7.8 m.

Type: Cargo ship. MMSI: 355090000.

Date/timePositionNaut miles runAvg speedWind from/ knotsBaromVisibWave heightAir tempDewpointWater temp
2016-Dec-08 01:32N 35°37' E 139°46'0 0.0
2016-Dec-08 00:32N 35°37' E 139°46'0 0.0
2016-Dec-07 23:32N 35°37' E 139°46'1 1.5
2016-Dec-07 22:34N 35°36' E 139°47'1010.4
2016-Dec-07 21:33N 35°25' E 139°47'1211.8
2016-Dec-07 20:33N 35°13' E 139°47'  
2016-Dec-03 19:28N 31°15' E 121°57'1314.2
2016-Dec-03 18:33N 31°19' E 121°43'4 0.6
2016-Dec-03 12:33N 31°21' E 121°39'2 1.6
2016-Dec-03 11:18N 31°20' E 121°41'8 9.1
2016-Dec-03 10:23N 31°17' E 121°50'48 2.8
2016-Dec-02 17:20N 30°47' E 122°34'1613.7
2016-Dec-02 16:10N 30°32' E 122°39'913.5
2016-Dec-02 15:31N 30°23' E 122°38'1414.2
2016-Dec-02 14:31N 30°09' E 122°37'1313.4
2016-Dec-02 13:33N 29°56' E 122°36'1312.6
2016-Dec-02 12:31N 29°44' E 122°32'1411.8
2016-Dec-02 11:20N 29°30' E 122°29'32411.2
2016-Dec-01 06:33N 24°55' E 119°16'1111.1
2016-Dec-01 05:33N 24°49' E 119°06'1111.1
2016-Dec-01 04:33N 24°42' E 118°57'1211.3
2016-Dec-01 03:31N 24°35' E 118°46'1211.7
2016-Dec-01 02:32N 24°28' E 118°36'3 2.9
2016-Dec-01 01:24N 24°31' E 118°34'0 0.0
2016-Dec-01 00:29N 24°31' E 118°34'0 0.0
2016-Nov-30 22:29N 24°31' E 118°34'0 0.0
2016-Nov-30 21:29N 24°31' E 118°34'0 0.0
2016-Nov-30 20:17N 24°31' E 118°34'0 0.0
2016-Nov-30 19:05N 24°31' E 118°34'0 0.1
2016-Nov-30 18:29N 24°31' E 118°34'0 0.0
2016-Nov-30 17:18N 24°31' E 118°34'0 0.0
2016-Nov-30 15:29N 24°31' E 118°34'2 1.9
2016-Nov-30 14:29N 24°29' E 118°33'  
Track history (hours):
 
Tides and Currents Weather Stations Pressure Air Temp Water Temp Dewpoint Dewpoint Depression Visibility Wind Speed Wind Dir Waves Ship Positions

Sitc Xiamen

Last reported at 2016-Dec-08 01:32 UTC. Time now 2016-Dec-08 02:12 UTC.
Position N 35°37' E 139°46'.

Length 145 m; draft 7.8 m.

Type: Cargo ship. MMSI: 355090000.

Date/timePositionNaut miles runAvg speedWind from/ knotsBaromVisibWave heightAir tempDewpointWater temp
2016-Dec-08 01:32N 35°37' E 139°46'0 0.0
2016-Dec-08 00:32N 35°37' E 139°46'0 0.0
2016-Dec-07 23:32N 35°37' E 139°46'1 1.5
2016-Dec-07 22:34N 35°36' E 139°47'1010.4
2016-Dec-07 21:33N 35°25' E 139°47'1211.8
2016-Dec-07 20:33N 35°13' E 139°47'  
2016-Dec-03 19:28N 31°15' E 121°57'1314.2
2016-Dec-03 18:33N 31°19' E 121°43'4 0.6
2016-Dec-03 12:33N 31°21' E 121°39'2 1.6
2016-Dec-03 11:18N 31°20' E 121°41'8 9.1
2016-Dec-03 10:23N 31°17' E 121°50'48 2.8
2016-Dec-02 17:20N 30°47' E 122°34'1613.7
2016-Dec-02 16:10N 30°32' E 122°39'913.5
2016-Dec-02 15:31N 30°23' E 122°38'1414.2
2016-Dec-02 14:31N 30°09' E 122°37'1313.4
2016-Dec-02 13:33N 29°56' E 122°36'1312.6
2016-Dec-02 12:31N 29°44' E 122°32'1411.8
2016-Dec-02 11:20N 29°30' E 122°29'32411.2
2016-Dec-01 06:33N 24°55' E 119°16'1111.1
2016-Dec-01 05:33N 24°49' E 119°06'1111.1
2016-Dec-01 04:33N 24°42' E 118°57'1211.3
2016-Dec-01 03:31N 24°35' E 118°46'1211.7
2016-Dec-01 02:32N 24°28' E 118°36'3 2.9
2016-Dec-01 01:24N 24°31' E 118°34'0 0.0
2016-Dec-01 00:29N 24°31' E 118°34'0 0.0
2016-Nov-30 22:29N 24°31' E 118°34'0 0.0
2016-Nov-30 21:29N 24°31' E 118°34'0 0.0
2016-Nov-30 20:17N 24°31' E 118°34'0 0.0
2016-Nov-30 19:05N 24°31' E 118°34'0 0.1
2016-Nov-30 18:29N 24°31' E 118°34'0 0.0
2016-Nov-30 17:18N 24°31' E 118°34'0 0.0
2016-Nov-30 15:29N 24°31' E 118°34'2 1.9
2016-Nov-30 14:29N 24°29' E 118°33'  

Dump ship's entire track history